createdAt,value
2022-08-11T00:02:15.447Z,16.12
2022-08-11T00:04:48.945Z,16.03
2022-08-11T00:07:20.405Z,16.00
2022-08-11T00:09:54.077Z,15.98
2022-08-11T00:12:27.579Z,16.04
2022-08-11T00:15:05.050Z,16.00
2022-08-11T00:17:38.873Z,16.01
2022-08-11T00:20:17.262Z,15.90
2022-08-11T00:22:52.155Z,15.77
2022-08-11T00:25:26.075Z,15.76
2022-08-11T00:27:59.113Z,15.78
2022-08-11T00:30:42.694Z,15.76
2022-08-11T00:33:15.834Z,15.70
2022-08-11T00:35:57.291Z,15.66
2022-08-11T00:38:37.634Z,15.65
2022-08-11T00:41:20.275Z,15.57
2022-08-11T00:44:09.855Z,15.53
2022-08-11T00:47:02.336Z,15.58
2022-08-11T00:49:47.265Z,15.61
2022-08-11T00:52:38.804Z,15.66
2022-08-11T00:55:59.884Z,15.67
2022-08-11T00:59:34.419Z,15.57
2022-08-11T01:02:18.533Z,15.60
2022-08-11T01:05:18.044Z,15.57
2022-08-11T01:08:17.363Z,15.54
2022-08-11T01:11:02.154Z,15.51
2022-08-11T01:14:07.864Z,15.51
2022-08-11T01:17:15.815Z,15.54
2022-08-11T01:20:46.492Z,15.54
2022-08-11T01:23:47.255Z,15.58
2022-08-11T01:27:19.400Z,15.59
2022-08-11T01:30:28.366Z,15.60
2022-08-11T01:33:35.115Z,15.62
2022-08-11T01:36:56.662Z,15.64
2022-08-11T01:40:03.145Z,15.64
2022-08-11T01:43:25.437Z,15.65
2022-08-11T01:46:03.558Z,15.66
2022-08-11T01:48:46.915Z,15.69
2022-08-11T01:51:30.745Z,15.68
2022-08-11T01:54:11.714Z,15.70
2022-08-11T01:56:58.800Z,15.70
2022-08-11T01:59:36.955Z,15.71
2022-08-11T02:02:46.444Z,15.71
2022-08-11T02:06:01.694Z,15.68
2022-08-11T02:08:50.498Z,15.64
2022-08-11T02:11:35.826Z,15.64
2022-08-11T02:14:26.555Z,15.63
2022-08-11T02:17:17.484Z,15.60
2022-08-11T02:20:21.104Z,15.58
2022-08-11T02:24:04.006Z,15.58
2022-08-11T02:26:23.055Z,15.59
2022-08-11T02:29:12.283Z,15.61
2022-08-11T02:32:25.968Z,15.53
2022-08-11T02:35:16.516Z,15.44
2022-08-11T02:38:09.147Z,15.36
2022-08-11T02:40:50.287Z,15.38
2022-08-11T02:43:31.715Z,15.42
2022-08-11T02:46:22.234Z,15.45
2022-08-11T02:49:37.127Z,15.44
2022-08-11T02:52:20.224Z,15.44
2022-08-11T02:55:04.317Z,15.43
2022-08-11T02:57:43.576Z,15.42
2022-08-11T03:00:20.278Z,15.42
2022-08-11T03:03:13.829Z,15.43
2022-08-11T03:06:02.845Z,15.43
2022-08-11T03:08:52.925Z,15.43
2022-08-11T03:12:08.521Z,15.41
2022-08-11T03:15:07.429Z,15.28
2022-08-11T03:17:49.463Z,15.31
2022-08-11T03:20:40.670Z,15.32
2022-08-11T03:23:29.440Z,15.35
2022-08-11T03:26:11.840Z,15.37
2022-08-11T03:28:53.710Z,15.36
2022-08-11T03:31:31.640Z,15.34
2022-08-11T03:34:08.533Z,15.35
2022-08-11T03:37:34.561Z,15.37
2022-08-11T03:40:38.232Z,15.36
2022-08-11T03:43:50.146Z,15.34
2022-08-11T03:46:45.810Z,15.36
2022-08-11T03:49:36.609Z,15.38
2022-08-11T03:52:18.661Z,15.40
2022-08-11T03:55:03.553Z,15.45
2022-08-11T03:58:25.881Z,15.50
2022-08-11T04:01:29.995Z,15.52
2022-08-11T04:04:47.715Z,15.52
2022-08-11T04:07:53.021Z,15.46
2022-08-11T04:10:59.319Z,15.53
2022-08-11T04:14:25.811Z,15.61
2022-08-11T04:17:22.691Z,15.66
2022-08-11T04:20:22.131Z,15.74
2022-08-11T04:24:34.440Z,15.81
2022-08-11T04:26:47.671Z,15.84
2022-08-11T04:30:03.223Z,15.90
2022-08-11T04:32:50.901Z,15.96
2022-08-11T04:35:36.181Z,16.03
2022-08-11T04:38:40.281Z,16.03
2022-08-11T04:42:02.372Z,16.08
2022-08-11T04:45:05.452Z,16.12
2022-08-11T04:48:08.970Z,16.17
2022-08-11T04:51:17.797Z,16.22
2022-08-11T04:54:19.520Z,16.27
2022-08-11T04:57:14.900Z,16.34
2022-08-11T05:00:33.252Z,16.42
2022-08-11T05:03:45.144Z,16.53
2022-08-11T05:06:48.978Z,16.70
2022-08-11T05:09:41.031Z,16.85
2022-08-11T05:12:31.851Z,17.10
2022-08-11T05:15:23.459Z,17.28
2022-08-11T05:18:21.764Z,17.50
2022-08-11T05:21:16.254Z,17.72
2022-08-11T05:24:13.824Z,17.95
2022-08-11T05:27:11.298Z,18.16
2022-08-11T05:30:07.113Z,18.39
2022-08-11T05:33:02.442Z,18.64
2022-08-11T05:36:02.434Z,18.76
2022-08-11T05:38:53.574Z,18.99
2022-08-11T05:41:46.270Z,19.16
2022-08-11T05:44:40.201Z,19.37
2022-08-11T05:47:30.762Z,19.56
2022-08-11T05:50:32.920Z,19.74
2022-08-11T05:53:30.261Z,19.92
2022-08-11T05:56:19.150Z,20.16
2022-08-11T05:58:54.640Z,20.31
2022-08-11T06:01:31.466Z,20.37
2022-08-11T06:04:18.472Z,20.49
2022-08-11T06:06:58.491Z,20.50
2022-08-11T06:09:36.734Z,20.70
2022-08-11T06:12:18.103Z,20.84
2022-08-11T06:14:56.009Z,20.75
2022-08-11T06:17:38.796Z,20.78
2022-08-11T06:20:15.487Z,20.92
2022-08-11T06:22:53.052Z,20.93
2022-08-11T06:25:31.849Z,21.12
2022-08-11T06:28:08.223Z,21.20
2022-08-11T06:30:44.931Z,21.34
2022-08-11T06:33:23.416Z,21.55
2022-08-11T06:36:05.651Z,21.66
2022-08-11T06:38:58.761Z,21.77
2022-08-11T06:41:39.836Z,21.95
2022-08-11T06:44:23.786Z,22.05
2022-08-11T06:47:01.533Z,21.98
2022-08-11T06:50:01.977Z,21.87
2022-08-11T06:52:37.219Z,21.78
2022-08-11T06:55:57.917Z,22.00
2022-08-11T06:58:50.164Z,22.15
2022-08-11T07:01:33.501Z,22.23
2022-08-11T07:04:10.820Z,22.36
2022-08-11T07:07:12.520Z,22.58
2022-08-11T07:10:37.143Z,22.74
2022-08-11T07:13:44.626Z,22.71
2022-08-11T07:16:26.396Z,22.78
2022-08-11T07:19:20.480Z,22.96
2022-08-11T07:22:12.386Z,23.13
2022-08-11T07:25:08.542Z,23.17
2022-08-11T07:28:06.632Z,22.95
2022-08-11T07:30:44.201Z,23.17
2022-08-11T07:34:07.816Z,23.42
2022-08-11T07:36:23.498Z,23.53
2022-08-11T07:39:02.631Z,23.56
2022-08-11T07:41:39.941Z,23.62
2022-08-11T07:44:13.676Z,23.70
2022-08-11T07:47:06.761Z,23.80
2022-08-11T07:49:59.442Z,24.00
2022-08-11T07:52:38.561Z,24.13
2022-08-11T07:55:15.343Z,24.25
2022-08-11T07:58:19.282Z,24.22
2022-08-11T08:01:21.401Z,24.37
2022-08-11T08:04:12.964Z,24.55
2022-08-11T08:07:03.578Z,24.34
2022-08-11T08:09:55.666Z,24.52
2022-08-11T08:12:46.931Z,24.42
2022-08-11T08:15:39.262Z,24.04
2022-08-11T08:18:25.546Z,24.27
2022-08-11T08:21:12.495Z,24.52
2022-08-11T08:23:47.621Z,24.59
2022-08-11T08:26:51.427Z,24.39
2022-08-11T08:29:43.390Z,24.57
2022-08-11T08:32:18.121Z,24.68
2022-08-11T08:34:55.869Z,24.85
2022-08-11T08:37:45.492Z,24.98
2022-08-11T08:40:22.136Z,25.04
2022-08-11T08:42:58.091Z,25.29
2022-08-11T08:45:31.924Z,25.42
2022-08-11T08:48:16.814Z,25.33
2022-08-11T08:51:13.232Z,25.14
2022-08-11T08:53:53.402Z,24.72
2022-08-11T08:56:32.110Z,24.57
2022-08-11T08:59:06.870Z,24.46
2022-08-11T09:01:47.896Z,24.32
2022-08-11T09:04:22.076Z,24.21
2022-08-11T09:06:55.961Z,24.12
2022-08-11T09:09:29.932Z,23.89
2022-08-11T09:12:05.987Z,24.04
2022-08-11T09:14:57.810Z,24.13
2022-08-11T09:17:32.413Z,24.13
2022-08-11T09:20:09.234Z,24.22
2022-08-11T09:24:02.036Z,24.33
2022-08-11T09:26:16.266Z,24.42
2022-08-11T09:28:51.072Z,24.38
2022-08-11T09:31:27.072Z,24.66
2022-08-11T09:34:00.356Z,24.46
2022-08-11T09:36:51.108Z,24.40
2022-08-11T09:39:41.052Z,24.36
2022-08-11T09:42:23.218Z,24.35
2022-08-11T09:44:58.072Z,24.33
2022-08-11T09:47:37.440Z,24.65
2022-08-11T09:50:13.570Z,24.79
2022-08-11T09:53:16.780Z,25.16
2022-08-11T09:55:42.973Z,25.43
2022-08-11T09:58:41.743Z,24.99
2022-08-11T10:01:27.646Z,25.07
2022-08-11T10:04:07.470Z,25.10
2022-08-11T10:06:59.409Z,25.27
2022-08-11T10:09:38.841Z,25.04
2022-08-11T10:12:27.404Z,24.98
2022-08-11T10:15:21.312Z,24.78
2022-08-11T10:18:16.301Z,24.46
2022-08-11T10:20:52.599Z,24.65
2022-08-11T10:24:00.995Z,24.64
2022-08-11T10:26:56.012Z,24.73
2022-08-11T10:29:50.053Z,24.65
2022-08-11T10:32:58.021Z,24.97
2022-08-11T10:35:34.533Z,25.13
2022-08-11T10:38:12.110Z,25.37
2022-08-11T10:41:11.538Z,25.31
2022-08-11T10:44:03.036Z,24.97
2022-08-11T10:46:54.461Z,24.87
2022-08-11T10:49:29.142Z,24.86
2022-08-11T10:52:20.411Z,24.81
2022-08-11T10:55:11.262Z,24.85
2022-08-11T10:58:04.813Z,24.93
2022-08-11T11:00:38.751Z,24.91
2022-08-11T11:03:22.759Z,24.83
2022-08-11T11:06:13.329Z,25.07
2022-08-11T11:09:04.540Z,25.32
2022-08-11T11:12:02.710Z,25.06
2022-08-11T11:14:59.066Z,25.03
2022-08-11T11:17:54.285Z,24.78
2022-08-11T11:20:36.749Z,24.63
2022-08-11T11:23:17.030Z,24.68
2022-08-11T11:26:10.992Z,24.59
2022-08-11T11:29:05.158Z,24.47
2022-08-11T11:31:52.650Z,24.45
2022-08-11T11:34:53.278Z,24.42
2022-08-11T11:37:27.601Z,24.46
2022-08-11T11:40:01.701Z,24.39
2022-08-11T11:42:35.123Z,24.42
2022-08-11T11:45:22.726Z,24.41
2022-08-11T11:47:59.760Z,24.28
2022-08-11T11:50:35.446Z,24.47
2022-08-11T11:53:11.533Z,24.81
2022-08-11T11:55:45.548Z,24.63
2022-08-11T11:58:36.760Z,24.06
2022-08-11T12:01:20.450Z,24.19
2022-08-11T12:03:55.500Z,24.10
2022-08-11T12:06:30.220Z,24.28
2022-08-11T12:09:03.735Z,24.68
2022-08-11T12:11:54.724Z,24.89
2022-08-11T12:14:29.109Z,24.71
2022-08-11T12:17:03.231Z,24.94
2022-08-11T12:19:36.360Z,24.94
2022-08-11T12:22:26.881Z,24.53
2022-08-11T12:25:17.100Z,22.84
2022-08-11T12:27:50.490Z,21.90
2022-08-11T12:30:24.300Z,21.33
2022-08-11T12:32:59.400Z,20.64
2022-08-11T12:35:35.620Z,20.10
2022-08-11T12:38:10.744Z,19.88
2022-08-11T12:41:17.971Z,19.53
2022-08-11T12:44:09.622Z,19.38
2022-08-11T12:46:47.196Z,19.31
2022-08-11T12:49:44.878Z,19.28
2022-08-11T12:52:24.323Z,19.06
2022-08-11T12:55:04.302Z,19.01
2022-08-11T12:57:57.865Z,19.02
2022-08-11T13:00:46.946Z,18.91
2022-08-11T13:03:39.966Z,18.89
2022-08-11T13:06:13.612Z,19.02
2022-08-11T13:08:48.103Z,19.22
2022-08-11T13:11:55.995Z,19.40
2022-08-11T13:14:33.504Z,19.43
2022-08-11T13:17:40.089Z,19.58
2022-08-11T13:20:20.472Z,19.74
2022-08-11T13:34:17.731Z,21.17
2022-08-11T13:36:53.671Z,21.39
2022-08-11T13:39:26.501Z,21.40
2022-08-11T13:41:59.112Z,21.46
2022-08-11T13:44:33.973Z,21.47
2022-08-11T13:47:07.613Z,21.40
2022-08-11T13:49:40.487Z,21.32
2022-08-11T13:52:13.156Z,21.31
2022-08-11T13:54:44.659Z,21.35
2022-08-11T13:58:08.876Z,21.42
2022-08-11T14:00:24.947Z,21.63
2022-08-11T14:03:00.048Z,21.72
2022-08-11T14:05:38.592Z,21.69
2022-08-11T14:08:37.430Z,21.76
2022-08-11T14:12:22.060Z,21.74
2022-08-11T14:14:21.871Z,21.69
2022-08-11T14:16:57.063Z,21.72
2022-08-11T14:19:28.792Z,21.63
2022-08-11T14:22:08.473Z,21.76
2022-08-11T14:24:41.582Z,21.96
2022-08-11T14:28:25.687Z,21.98
2022-08-11T14:30:05.103Z,21.95
2022-08-11T14:32:35.713Z,22.11
2022-08-11T14:35:23.652Z,22.28
2022-08-11T14:37:54.513Z,22.32
2022-08-11T14:40:44.092Z,22.48
2022-08-11T14:44:13.983Z,22.74
2022-08-11T14:46:41.578Z,23.01
2022-08-11T14:49:14.817Z,23.09
2022-08-11T14:51:47.116Z,23.11
2022-08-11T14:54:35.921Z,23.25
2022-08-11T14:57:06.602Z,23.21
2022-08-11T14:59:37.693Z,23.09
2022-08-11T15:02:26.102Z,23.06
2022-08-11T15:04:57.492Z,22.90
2022-08-11T15:07:30.090Z,22.72
2022-08-11T15:10:14.003Z,22.63
2022-08-11T15:12:44.861Z,22.47
2022-08-11T15:15:34.372Z,22.45
2022-08-11T15:18:06.661Z,22.30
2022-08-11T15:20:55.912Z,22.27
2022-08-11T15:23:44.363Z,22.17
2022-08-11T15:26:17.480Z,22.04
2022-08-11T15:29:08.702Z,22.02
2022-08-11T15:31:58.131Z,21.96
2022-08-11T15:34:48.561Z,22.00
2022-08-11T15:37:27.668Z,22.01
2022-08-11T15:40:32.143Z,21.79
2022-08-11T15:43:29.181Z,21.82
2022-08-11T15:46:03.656Z,21.60
2022-08-11T15:48:42.250Z,21.53
2022-08-11T15:51:17.371Z,21.62
2022-08-11T15:53:56.462Z,21.70
2022-08-11T15:56:29.820Z,21.88
2022-08-11T15:59:42.809Z,22.09
2022-08-11T16:02:32.749Z,22.24
2022-08-11T16:05:07.652Z,22.35
2022-08-11T16:07:41.041Z,22.47
2022-08-11T16:10:21.326Z,22.58
2022-08-11T16:13:22.161Z,22.61
2022-08-11T16:16:14.564Z,22.55
2022-08-11T16:18:46.858Z,22.49
2022-08-11T16:21:34.342Z,22.55
2022-08-11T16:24:08.578Z,22.59
2022-08-11T16:27:08.487Z,22.58
2022-08-11T16:29:36.930Z,22.50
2022-08-11T16:32:17.690Z,22.62
2022-08-11T16:35:09.492Z,22.60
2022-08-11T16:37:59.001Z,22.39
2022-08-11T16:40:31.191Z,22.32
2022-08-11T16:43:21.974Z,22.06
2022-08-11T16:46:11.966Z,21.78
2022-08-11T16:48:46.612Z,21.79
2022-08-11T16:51:20.914Z,21.65
2022-08-11T16:54:04.387Z,21.30
2022-08-11T16:56:39.739Z,21.26
2022-08-11T16:59:17.715Z,21.25
2022-08-11T17:01:52.771Z,21.13
2022-08-11T17:04:54.690Z,21.05
2022-08-11T17:07:46.080Z,20.96
2022-08-11T17:10:52.077Z,20.86
2022-08-11T17:13:29.502Z,20.60
2022-08-11T17:16:11.334Z,20.34
2022-08-11T17:18:49.442Z,20.18
2022-08-11T17:21:23.570Z,20.14
2022-08-11T17:23:57.568Z,20.10
2022-08-11T17:26:47.285Z,20.02
2022-08-11T17:29:21.750Z,19.85
2022-08-11T17:32:08.090Z,19.82
2022-08-11T17:34:58.679Z,19.52
2022-08-11T17:37:32.867Z,19.33
2022-08-11T17:40:06.017Z,19.26
2022-08-11T17:42:53.580Z,19.16
2022-08-11T17:45:42.807Z,18.96
2022-08-11T17:48:26.149Z,18.90
2022-08-11T17:51:00.109Z,18.76
2022-08-11T17:54:10.179Z,18.59
2022-08-11T17:57:20.205Z,18.40
2022-08-11T17:59:57.400Z,18.26
2022-08-11T18:02:53.730Z,18.08
2022-08-11T18:05:28.520Z,17.92
2022-08-11T18:08:18.381Z,17.83
2022-08-11T18:11:08.812Z,17.80
2022-08-11T18:13:59.062Z,17.80
2022-08-11T18:16:47.790Z,17.67
2022-08-11T18:19:36.778Z,17.68
2022-08-11T18:22:27.664Z,17.58
2022-08-11T18:25:21.362Z,17.53
2022-08-11T18:28:12.053Z,17.43
2022-08-11T18:31:04.643Z,17.35
2022-08-11T18:34:08.239Z,17.33
2022-08-11T18:37:00.334Z,17.35
2022-08-11T18:39:56.552Z,17.44
2022-08-11T18:42:47.901Z,17.51
2022-08-11T18:45:46.104Z,17.55
2022-08-11T18:48:40.371Z,17.59
2022-08-11T18:51:36.916Z,17.57
2022-08-11T18:54:27.678Z,17.54
2022-08-11T18:57:19.901Z,17.53
2022-08-11T19:00:10.621Z,17.51
2022-08-11T19:03:01.322Z,17.39
2022-08-11T19:06:35.535Z,17.29
2022-08-11T19:09:07.772Z,17.24
2022-08-11T19:11:59.725Z,17.23
2022-08-11T19:14:53.467Z,17.24
2022-08-11T19:17:44.141Z,17.24
2022-08-11T19:20:38.038Z,17.15
2022-08-11T19:23:29.539Z,17.13
2022-08-11T19:26:19.511Z,17.03
2022-08-11T19:29:09.182Z,16.87
2022-08-11T19:32:18.902Z,16.78
2022-08-11T19:35:08.472Z,16.53
2022-08-11T19:37:58.751Z,16.42
2022-08-11T19:40:48.161Z,16.39
2022-08-11T19:43:38.050Z,16.35
2022-08-11T19:46:28.611Z,16.34
2022-08-11T19:49:17.533Z,16.28
2022-08-11T19:52:06.299Z,16.23
2022-08-11T19:54:56.786Z,16.23
2022-08-11T19:57:46.501Z,16.16
2022-08-11T20:00:37.511Z,16.07
2022-08-11T20:03:29.489Z,16.00
2022-08-11T20:06:21.942Z,15.99
2022-08-11T20:09:12.072Z,15.95
2022-08-11T20:12:04.741Z,15.93
2022-08-11T20:14:55.260Z,15.92
2022-08-11T20:17:47.662Z,15.92
2022-08-11T20:20:38.143Z,15.88
2022-08-11T20:23:31.212Z,15.81
2022-08-11T20:26:30.745Z,15.75
2022-08-11T20:29:21.342Z,15.65
2022-08-11T20:32:10.139Z,15.57
2022-08-11T20:35:00.644Z,15.51
2022-08-11T20:37:53.132Z,15.45
2022-08-11T20:40:43.400Z,15.41
2022-08-11T20:44:08.513Z,15.36
2022-08-11T20:46:42.815Z,15.20
2022-08-11T20:49:40.855Z,15.13
2022-08-11T20:55:53.836Z,15.02
2022-08-11T21:01:53.404Z,15.04
2022-08-11T21:07:56.945Z,14.91
2022-08-11T21:10:51.526Z,14.93
2022-08-11T21:13:42.821Z,14.93
2022-08-11T21:16:36.812Z,14.82
2022-08-11T21:20:01.445Z,14.71
2022-08-11T21:22:59.273Z,14.57
2022-08-11T21:25:52.059Z,14.56
2022-08-11T21:28:41.296Z,14.50
2022-08-11T21:31:30.082Z,14.48
2022-08-11T21:34:19.462Z,14.47
2022-08-11T21:37:29.411Z,14.46
2022-08-11T21:40:20.792Z,14.43
2022-08-11T21:43:11.191Z,14.36
2022-08-11T21:46:01.652Z,14.37
2022-08-11T21:48:51.782Z,14.37
2022-08-11T21:51:44.487Z,14.39
2022-08-11T21:54:34.610Z,14.41
2022-08-11T21:57:23.851Z,14.41
2022-08-11T22:00:13.959Z,14.37
2022-08-11T22:03:04.683Z,14.36
2022-08-11T22:05:55.302Z,14.29
2022-08-11T22:08:43.412Z,14.27
2022-08-11T22:11:32.882Z,14.28
2022-08-11T22:14:22.261Z,14.27
2022-08-11T22:17:10.601Z,14.27
2022-08-11T22:20:00.850Z,14.24
2022-08-11T22:22:53.006Z,14.23
2022-08-11T22:25:59.713Z,14.22
2022-08-11T22:28:50.703Z,14.23
2022-08-11T22:31:39.382Z,14.21
2022-08-11T22:34:28.212Z,14.09
2022-08-11T22:37:27.229Z,14.03
2022-08-11T22:40:16.783Z,14.00
2022-08-11T22:43:04.522Z,13.98
2022-08-11T22:45:52.692Z,13.95
2022-08-11T22:48:41.122Z,13.92
2022-08-11T22:51:29.253Z,13.90
2022-08-11T22:54:18.382Z,13.88
2022-08-11T22:57:07.863Z,13.85
2022-08-11T22:59:57.031Z,13.83
2022-08-11T23:02:47.875Z,13.82
2022-08-11T23:05:37.212Z,13.80
2022-08-11T23:08:25.762Z,13.79
2022-08-11T23:11:14.974Z,13.78
2022-08-11T23:14:03.795Z,13.77
2022-08-11T23:16:52.531Z,13.75
2022-08-11T23:20:03.822Z,13.74
2022-08-11T23:22:52.930Z,13.69
2022-08-11T23:25:41.363Z,13.65
2022-08-11T23:28:31.416Z,13.63
2022-08-11T23:31:20.412Z,13.59
2022-08-11T23:34:37.052Z,13.56
2022-08-11T23:37:22.974Z,13.52
2022-08-11T23:40:11.223Z,13.51
2022-08-11T23:42:59.534Z,13.50
2022-08-11T23:45:47.383Z,13.48
2022-08-11T23:48:37.602Z,13.47
2022-08-11T23:51:27.532Z,13.40
2022-08-11T23:54:41.690Z,13.35
2022-08-11T23:57:50.212Z,13.31
